Portada
METAR-TAF:

METAR-TAF

Aeroports :

Kèmerovo, Rússia

latitud: 55-19-48N, longitud: 086-04-48E, altitud: 260 m

Observació

L'informe es va fer fa 35 minuts, a les 03:00 UTC
Vent 10 kt del Sud
Temperatura -27°C
Humitat 75%
Pressió 1030 hPa
Visibilitat: 4100 m
Cel ennuvolat a una alçada de 3600 ft, Cumulonimbus.
xàfecs de neu

METAR: UNEE 210300Z 17005MPS 4100 -SHSN BKN036CB M27/M30 Q1030 R23/990533 NOSIG RMK QFE749

Hora: 10:35 (03:35 UTC)

Pronòstic

L'informe es va fer fa 1 hora i 35 minuts, a les 02:00 UTC
Pronòstic vàlid del 21 a les 03 UTC al 22 a les 03 UTC
Vent 6 kt del Sud amb ràfegues de 16 kt
Visibilitat 10 km o més
Núvols disperses a una alçada de 2000 ft, Cumulonimbus.
Temporalment
l' 21 a les 03 UTC al 21 a les 24 UTC
Vent 16 kt del Sud amb ràfegues de 25 kt
Visibilitat: 3100 m
Cel ennuvolat a una alçada de 1100 ft, Cumulonimbus.
xàfecs de neu

TAF: UNEE 210200Z 2103/2203 17003G08MPS 9999 SCT020CB TEMPO 2103/2124 19008G13MPS 3100 -SHSN BKN011CB

Observacions i pronòstics meteorològics de més de 4000 aeroports (METAR i TAF).

Les estacions disponibles són els punts grocs i vermells al mapa.

Posi el ratolí al punt desitjat per veure el nom de l'estació.

Feu clic per veure les observacions i els pronòstics meteorològics.

Per canviar el mapa: feu clic els botons verds amb una creu de color negre per apropar; al botó verd amb un guió per allunyar la imatge; o en les fletxes verdes per a mapes adjacents.


METAR-TAF: